Portada
METAR-TAF:

METAR-TAF

Aeropuertos :

Aeropuerto de Kristiansand-Kjevik

Kristiansand, Noruega

latitud: 58-12N, longitud: 008-05E, altitud: 1 m

Observación

El informe se hizo hace 25 minutos, a las 11:20 UTC
Viento 7 kt del este-sureste, variando entre este-noreste y sureste
Temperatura 19°C
Humedad 49%
Presión 1025 hPa
Visibilidad 10 km o más
sin nubes por debajo de 1500 m y sin presencia de cumulonimbus.

METAR: ENCN 191120Z 11007KT 070V140 CAVOK 19/08 Q1025

Hora: 13:45 (11:45 UTC)

Pronóstico

El informe se hizo hace 45 minutos, a las 11:00 UTC
Pronóstico válido del 19 a las 12 UTC al 19 a las 21 UTC
Viento 5 kt del este
Visibilidad 10 km o más
sin nubes por debajo de 1500 m y sin presencia de cumulonimbus.

TAF: ENCN 191100Z 1912/1921 10005KT CAVOK

Observaciones y pronósticos meteorológicos de más de 4000 aeropuertos (mensajes METAR y TAF).

Los puntos amarillos y rojos representan las estaciones disponibles.

Ponga el ratón en el punto deseado para ver el nombre de la estación.

Haga clic para ver las observaciones y los pronósticos meteorológicos.

Para cambiar el mapa : haga clic en los botones verdes con una cruz de color negro para hacer un zoom, en el botón verde con un guión para alejar o en las flechas verdes para mapas adyacentes.


METAR-TAF: